Time;durP1;ratioP1;P1;durP2;ratioP2;P2;SDS_P1;SDS_P2;PMS_P1;PMS_P2;Temp;Humidity;BMP_temperature;BMP_pressure;BME280_temperature;BME280_humidity;BME280_pressure;Samples;Min_cycle;Max_cycle;Signal;HPM_P1;HPM_P2
2022/09/04 00:00:02;;;;;;;0.75;0.50;;;17.30;88.30;;;;;;5054420;28;20071;-81
2022/09/04 00:02:28;;;;;;;1.25;0.73;;;17.20;88.40;;;;;;5053940;28;20052;-81
2022/09/04 00:05:15;;;;;;;1.20;0.80;;;17.20;88.80;;;;;;5053822;28;20040;-72
2022/09/04 00:08:18;;;;;;;1.00;0.70;;;17.20;88.80;;;;;;5053708;28;20048;-72
2022/09/04 00:10:52;;;;;;;1.35;0.70;;;17.20;88.90;;;;;;5054676;28;20053;-81
2022/09/04 00:13:32;;;;;;;0.88;0.60;;;17.10;89.00;;;;;;5054297;28;20075;-81
2022/09/04 00:16:09;;;;;;;1.67;0.90;;;17.10;89.10;;;;;;5054010;28;20048;-81
2022/09/04 00:18:58;;;;;;;0.90;0.60;;;17.10;89.00;;;;;;5053945;28;20044;-80
2022/09/04 00:21:52;;;;;;;1.42;0.60;;;17.00;89.30;;;;;;5054228;28;20499;-81
2022/09/04 00:24:23;;;;;;;0.90;0.60;;;17.00;89.40;;;;;;5054147;28;20060;-80
2022/09/04 00:27:09;;;;;;;0.75;0.55;;;16.90;89.00;;;;;;5053530;28;20426;-71
2022/09/04 00:29:59;;;;;;;1.20;0.65;;;16.90;89.30;;;;;;5053663;28;20059;-71
2022/09/04 00:32:40;;;;;;;1.10;0.68;;;16.90;89.10;;;;;;5053297;28;20487;-71
2022/09/04 00:35:20;;;;;;;1.20;0.63;;;16.90;89.50;;;;;;5049728;28;20060;-71
2022/09/04 00:37:55;;;;;;;1.48;0.80;;;16.80;89.60;;;;;;5050024;28;20048;-71
2022/09/04 00:40:34;;;;;;;1.50;0.70;;;16.80;89.70;;;;;;5049905;28;20045;-72
2022/09/04 00:43:28;;;;;;;1.00;0.70;;;16.80;89.70;;;;;;5050475;28;20048;-71
2022/09/04 00:46:24;;;;;;;0.70;0.50;;;16.70;89.70;;;;;;5033211;28;20175;-72
2022/09/04 00:49:02;;;;;;;0.70;0.40;;;16.70;89.90;;;;;;5033250;28;20400;-73
2022/09/04 00:52:00;;;;;;;1.05;0.70;;;16.70;90.00;;;;;;5050268;28;20053;-81
2022/09/04 00:54:44;;;;;;;1.30;0.80;;;16.60;89.90;;;;;;5050369;28;20052;-82
2022/09/04 00:57:25;;;;;;;1.50;0.70;;;16.60;89.90;;;;;;5049866;28;20119;-71
2022/09/04 01:00:15;;;;;;;1.00;0.65;;;16.60;90.00;;;;;;5033170;28;20037;-71
2022/09/04 01:02:53;;;;;;;0.85;0.55;;;16.60;90.00;;;;;;5050605;28;20435;-80
2022/09/04 01:05:44;;;;;;;1.02;0.70;;;16.50;90.00;;;;;;5049630;28;20045;-71
2022/09/04 01:08:31;;;;;;;1.17;0.70;;;16.50;90.10;;;;;;5049663;28;20448;-80
2022/09/04 01:11:00;;;;;;;1.27;0.80;;;16.50;90.10;;;;;;5049685;28;20051;-79
2022/09/04 01:13:39;;;;;;;1.42;0.80;;;16.40;90.20;;;;;;5049681;28;20411;-81
2022/09/04 01:16:44;;;;;;;1.05;0.80;;;16.40;90.20;;;;;;5049734;28;20151;-80
2022/09/04 01:19:48;;;;;;;1.85;0.90;;;16.40;90.40;;;;;;5027491;28;20074;-71
2022/09/04 01:22:45;;;;;;;0.98;0.65;;;16.30;90.30;;;;;;5049482;28;20045;-79
2022/09/04 01:25:29;;;;;;;2.38;0.93;;;16.30;90.30;;;;;;5049913;28;20492;-80
2022/09/04 01:28:24;;;;;;;1.63;0.90;;;16.30;90.40;;;;;;5049650;28;20040;-72
2022/09/04 01:31:21;;;;;;;1.40;0.80;;;16.20;90.40;;;;;;5049214;28;20137;-72
2022/09/04 01:34:04;;;;;;;0.88;0.60;;;16.20;90.60;;;;;;5043955;28;20060;-72
2022/09/04 01:36:58;;;;;;;0.93;0.63;;;16.10;90.50;;;;;;5049190;28;20057;-72
2022/09/04 01:39:27;;;;;;;1.15;0.80;;;16.10;90.60;;;;;;5049447;28;20070;-81
2022/09/04 01:42:07;;;;;;;1.13;0.73;;;16.10;90.60;;;;;;5049581;28;20045;-79
2022/09/04 01:44:34;;;;;;;2.20;0.90;;;16.00;90.80;;;;;;5050774;28;20037;-72
2022/09/04 01:47:07;;;;;;;2.50;1.08;;;16.00;90.80;;;;;;5050721;28;20377;-72
2022/09/04 01:50:09;;;;;;;2.92;1.00;;;16.00;90.90;;;;;;5049431;28;20124;-72
2022/09/04 01:53:17;;;;;;;1.67;0.95;;;16.00;90.90;;;;;;5028499;28;20061;-81
2022/09/04 01:55:49;;;;;;;1.85;0.88;;;16.00;90.70;;;;;;5004126;28;20471;-72
2022/09/04 01:58:35;;;;;;;2.38;1.00;;;15.90;90.80;;;;;;5048980;28;20041;-72
2022/09/04 02:01:09;;;;;;;1.23;0.80;;;15.90;91.00;;;;;;5049005;28;20056;-72
2022/09/04 02:03:56;;;;;;;1.20;0.90;;;15.90;91.00;;;;;;5050432;28;20527;-71
2022/09/04 02:06:47;;;;;;;1.80;0.83;;;15.90;91.10;;;;;;5049288;28;20072;-72
2022/09/04 02:09:25;;;;;;;1.52;0.80;;;15.80;91.20;;;;;;5032696;28;20052;-72
2022/09/04 02:12:07;;;;;;;1.15;0.82;;;15.80;91.20;;;;;;5050506;28;20045;-72
2022/09/04 02:14:49;;;;;;;1.88;0.70;;;15.80;91.30;;;;;;5036013;28;20484;-72
2022/09/04 02:17:37;;;;;;;2.08;0.90;;;15.70;91.40;;;;;;5052629;28;20128;-71
2022/09/04 02:20:24;;;;;;;1.30;0.65;;;15.70;91.40;;;;;;5036037;28;20114;-71
2022/09/04 02:23:02;;;;;;;1.30;0.60;;;15.70;91.40;;;;;;5052455;28;20045;-71
2022/09/04 02:25:48;;;;;;;0.85;0.60;;;15.60;91.50;;;;;;5052340;28;20052;-71
2022/09/04 02:28:20;;;;;;;1.35;0.63;;;15.60;91.50;;;;;;5052344;28;20496;-71
2022/09/04 02:31:07;;;;;;;1.08;0.63;;;15.60;91.50;;;;;;5052329;28;20049;-72
2022/09/04 02:33:56;;;;;;;1.33;0.60;;;15.60;91.40;;;;;;5036116;28;20088;-72
2022/09/04 02:36:35;;;;;;;0.68;0.60;;;15.50;91.50;;;;;;5052018;28;20382;-71
2022/09/04 02:39:27;;;;;;;2.10;0.70;;;15.50;91.60;;;;;;5052181;28;20079;-72
2022/09/04 02:41:59;;;;;;;0.57;0.43;;;15.50;91.60;;;;;;5051901;28;20040;-71
2022/09/04 02:44:49;;;;;;;0.40;0.40;;;15.40;91.70;;;;;;5052138;28;20033;-71
2022/09/04 02:47:44;;;;;;;2.08;0.60;;;15.40;91.70;;;;;;5052306;28;20052;-71
2022/09/04 02:50:28;;;;;;;1.10;0.63;;;15.40;91.80;;;;;;5051695;28;20139;-72
2022/09/04 02:53:12;;;;;;;1.40;0.70;;;15.40;91.90;;;;;;5051771;28;20120;-71
2022/09/04 02:56:09;;;;;;;0.60;0.43;;;15.40;91.90;;;;;;5051733;28;20051;-72
2022/09/04 02:58:48;;;;;;;1.50;0.90;;;15.30;92.00;;;;;;5051822;28;20041;-71
2022/09/04 03:01:36;;;;;;;1.85;0.80;;;15.30;92.00;;;;;;5051600;28;20382;-71
2022/09/04 03:04:08;;;;;;;1.08;0.75;;;15.30;91.80;;;;;;5051796;28;20378;-71
2022/09/04 03:06:48;;;;;;;2.03;0.70;;;15.30;92.30;;;;;;5051758;28;20068;-71
2022/09/04 03:09:20;;;;;;;1.15;0.75;;;15.20;92.20;;;;;;5051482;28;20037;-71
2022/09/04 03:12:28;;;;;;;2.15;0.90;;;15.20;92.10;;;;;;5051492;28;20044;-71
2022/09/04 03:15:22;;;;;;;1.67;0.80;;;15.20;92.30;;;;;;5034654;28;20041;-72
2022/09/04 03:17:50;;;;;;;1.50;0.90;;;15.20;92.20;;;;;;5034741;28;20071;-72
2022/09/04 03:20:22;;;;;;;0.75;0.68;;;15.20;92.40;;;;;;5051208;28;20045;-71
2022/09/04 03:23:08;;;;;;;1.10;0.80;;;15.10;92.40;;;;;;5034924;28;20430;-72
2022/09/04 03:25:37;;;;;;;0.93;0.70;;;15.10;92.40;;;;;;5034126;28;20124;-71
2022/09/04 03:28:07;;;;;;;1.63;0.80;;;15.10;92.50;;;;;;5051370;28;20057;-72
2022/09/04 03:30:35;;;;;;;1.52;0.90;;;15.10;92.50;;;;;;5051172;28;20099;-71
2022/09/04 03:33:03;;;;;;;1.42;0.80;;;15.10;92.50;;;;;;5051053;28;20045;-71
2022/09/04 03:35:43;;;;;;;1.85;1.10;;;15.10;92.60;;;;;;5054053;28;20053;-72
2022/09/04 03:38:09;;;;;;;1.30;1.00;;;15.00;92.50;;;;;;5054387;28;20056;-72
2022/09/04 03:40:40;;;;;;;2.97;0.93;;;15.00;92.60;;;;;;5054304;28;20098;-72
2022/09/04 03:43:23;;;;;;;1.40;0.93;;;15.00;92.70;;;;;;5038026;28;20041;-71
2022/09/04 03:46:02;;;;;;;1.58;0.90;;;15.00;92.70;;;;;;5054322;28;20062;-73
2022/09/04 03:48:57;;;;;;;1.00;0.80;;;15.00;92.80;;;;;;5054378;28;20373;-72
2022/09/04 03:51:26;;;;;;;1.33;0.70;;;14.90;92.70;;;;;;5054009;28;20514;-72
2022/09/04 03:54:01;;;;;;;1.30;0.80;;;14.90;92.80;;;;;;5053809;28;20131;-73
2022/09/04 03:56:30;;;;;;;0.85;0.70;;;14.90;92.90;;;;;;5053741;28;20056;-71
2022/09/04 03:59:08;;;;;;;1.90;0.80;;;14.80;93.00;;;;;;5054145;28;20051;-72
2022/09/04 04:02:07;;;;;;;1.05;0.80;;;14.80;93.00;;;;;;5053704;28;20500;-72
2022/09/04 04:05:18;;;;;;;1.10;0.70;;;14.70;92.80;;;;;;5053708;28;20044;-71
2022/09/04 04:08:13;;;;;;;0.82;0.63;;;14.70;93.20;;;;;;5014065;28;20048;-73
2022/09/04 04:11:08;;;;;;;1.30;0.90;;;14.70;93.20;;;;;;5053655;28;20048;-72
2022/09/04 04:13:45;;;;;;;1.38;0.85;;;14.70;93.00;;;;;;5053476;28;20569;-72
2022/09/04 04:16:39;;;;;;;0.82;0.60;;;14.60;93.30;;;;;;5053357;28;20060;-71
2022/09/04 04:19:22;;;;;;;1.50;0.70;;;14.60;93.50;;;;;;5053420;28;20500;-71
2022/09/04 04:22:13;;;;;;;0.90;0.77;;;14.60;93.60;;;;;;5053488;28;20048;-71
2022/09/04 04:24:53;;;;;;;0.95;0.65;;;14.50;93.60;;;;;;5036979;28;20459;-72
2022/09/04 04:27:26;;;;;;;1.05;0.70;;;14.50;93.50;;;;;;5053381;28;20488;-72
2022/09/04 04:30:03;;;;;;;2.08;1.10;;;14.50;93.70;;;;;;5036920;28;20044;-72
2022/09/04 04:32:42;;;;;;;0.90;0.68;;;14.50;93.70;;;;;;5053538;28;20307;-72
2022/09/04 04:35:54;;;;;;;1.38;0.65;;;14.40;93.50;;;;;;5052966;28;20048;-72
2022/09/04 04:38:54;;;;;;;1.30;0.80;;;14.50;93.70;;;;;;5053061;28;20339;-72
2022/09/04 04:42:05;;;;;;;1.65;0.73;;;14.40;93.80;;;;;;5053009;28;20419;-72
2022/09/04 04:47:45;;;;;;;1.08;0.70;;;14.50;93.80;;;;;;5052907;28;20399;-70
2022/09/04 04:50:26;;;;;;;2.35;0.70;;;14.50;93.60;;;;;;5053213;28;20388;-72
2022/09/04 04:53:13;;;;;;;1.20;0.80;;;14.50;93.80;;;;;;5052882;28;20052;-72
2022/09/04 04:55:57;;;;;;;;;;;14.50;93.90;;;;;;5071478;28;20549;-72
2022/09/04 04:58:35;;;;;;;1.92;1.05;;;14.50;93.90;;;;;;5053095;28;19946;-71
2022/09/04 05:01:18;;;;;;;1.13;0.75;;;14.60;93.90;;;;;;5052706;28;20079;-72
2022/09/04 05:03:53;;;;;;;2.15;1.00;;;14.60;93.80;;;;;;5036351;28;20091;-71
2022/09/04 05:06:35;;;;;;;1.88;0.85;;;14.60;93.90;;;;;;5052754;28;20124;-72
2022/09/04 05:09:15;;;;;;;1.30;0.98;;;14.60;93.90;;;;;;5052855;28;20395;-73
2022/09/04 05:11:52;;;;;;;1.08;0.75;;;14.60;93.90;;;;;;5052564;28;20045;-71
2022/09/04 05:14:33;;;;;;;1.00;0.80;;;14.50;93.90;;;;;;5052606;28;20091;-72
2022/09/04 05:17:21;;;;;;;1.30;0.80;;;14.50;94.00;;;;;;5052485;28;20431;-71
2022/09/04 05:20:10;;;;;;;1.83;0.75;;;14.50;94.00;;;;;;5052588;28;20464;-71
2022/09/04 05:22:58;;;;;;;0.95;0.60;;;14.50;93.80;;;;;;5052637;28;20052;-72
2022/09/04 05:25:45;;;;;;;1.00;0.70;;;14.50;93.90;;;;;;5052125;28;20060;-72
2022/09/04 05:28:19;;;;;;;0.98;0.65;;;14.50;94.20;;;;;;5036035;28;20055;-72
2022/09/04 05:30:47;;;;;;;1.05;0.70;;;14.50;94.30;;;;;;5052399;28;20598;-71
2022/09/04 05:34:03;;;;;;;0.73;0.60;;;14.50;94.40;;;;;;5052793;28;20048;-71
2022/09/04 05:36:37;;;;;;;1.88;1.10;;;14.50;94.50;;;;;;4998188;28;20133;-71
2022/09/04 05:39:22;;;;;;;1.23;0.98;;;14.50;94.40;;;;;;5052487;28;20127;-71
2022/09/04 05:42:00;;;;;;;1.77;1.00;;;14.50;94.50;;;;;;5070908;28;20041;-71
2022/09/04 05:44:29;;;;;;;1.60;0.98;;;14.50;94.60;;;;;;5052595;28;20431;-71
2022/09/04 05:47:19;;;;;;;1.20;0.82;;;14.60;94.30;;;;;;5052728;28;20040;-71
2022/09/04 05:50:09;;;;;;;1.02;0.80;;;14.60;94.60;;;;;;5056136;28;20045;-71
2022/09/04 05:52:57;;;;;;;0.77;0.63;;;14.70;94.60;;;;;;5056204;28;20040;-70
2022/09/04 05:55:41;;;;;;;;;;;14.80;94.70;;;;;;5056490;28;20040;-71
2022/09/04 05:58:39;;;;;;;2.45;1.00;;;14.80;94.50;;;;;;5056220;28;19926;-71
2022/09/04 06:01:30;;;;;;;1.98;0.93;;;14.80;94.30;;;;;;5023214;28;20080;-71
2022/09/04 06:04:32;;;;;;;1.60;1.00;;;14.90;94.50;;;;;;5055958;28;20044;-71
2022/09/04 06:07:10;;;;;;;1.33;1.02;;;14.90;94.50;;;;;;5056081;28;20040;-71
2022/09/04 06:09:58;;;;;;;1.35;0.98;;;14.90;94.50;;;;;;5055787;28;20052;-71
2022/09/04 06:12:51;;;;;;;1.67;1.00;;;15.00;94.60;;;;;;5055887;28;20051;-72
2022/09/04 06:15:44;;;;;;;2.17;1.00;;;15.00;94.40;;;;;;5055934;28;20438;-71
2022/09/04 06:18:48;;;;;;;1.52;1.02;;;15.00;94.50;;;;;;5055708;28;20040;-72
2022/09/04 06:21:51;;;;;;;3.03;0.90;;;15.10;94.90;;;;;;5053481;28;20131;-72
2022/09/04 06:24:39;;;;;;;1.25;1.00;;;15.10;94.60;;;;;;5055706;28;20032;-71
2022/09/04 06:27:27;;;;;;;1.27;0.95;;;15.10;94.60;;;;;;5055580;28;20090;-71
2022/09/04 06:30:05;;;;;;;1.80;1.00;;;15.20;94.40;;;;;;5047312;28;20071;-71
2022/09/04 06:32:44;;;;;;;2.33;1.10;;;15.40;94.50;;;;;;5038793;28;20045;-71
2022/09/04 06:35:35;;;;;;;1.38;1.00;;;15.70;94.30;;;;;;5055259;28;20052;-72
2022/09/04 06:38:16;;;;;;;1.45;0.93;;;16.10;94.00;;;;;;5055324;28;20412;-71
2022/09/04 06:41:34;;;;;;;1.33;1.05;;;16.40;93.60;;;;;;5055128;28;20150;-71
2022/09/04 06:44:00;;;;;;;1.80;1.27;;;16.50;93.50;;;;;;5006235;28;20140;-71
2022/09/04 06:46:34;;;;;;;1.42;1.13;;;16.70;93.30;;;;;;5055209;28;20131;-71
2022/09/04 06:49:07;;;;;;;1.30;0.98;;;17.00;93.20;;;;;;5055340;28;20044;-71
2022/09/04 06:51:45;;;;;;;1.23;0.88;;;17.30;92.90;;;;;;5054970;28;20048;-71
2022/09/04 06:54:17;;;;;;;1.45;0.93;;;17.50;92.70;;;;;;5055033;28;20123;-72
2022/09/04 06:57:30;;;;;;;1.77;1.00;;;17.70;92.50;;;;;;5054896;28;20054;-71
2022/09/04 07:00:08;;;;;;;2.72;1.38;;;18.00;91.90;;;;;;4973737;28;20540;-71
2022/09/04 07:02:49;;;;;;;1.80;1.13;;;18.30;91.60;;;;;;5051523;28;20136;-71
2022/09/04 07:05:25;;;;;;;1.73;1.00;;;18.40;91.30;;;;;;5054907;28;20040;-71
2022/09/04 07:08:11;;;;;;;1.85;1.00;;;18.60;91.50;;;;;;5055208;28;20052;-72
2022/09/04 07:11:04;;;;;;;1.73;1.00;;;18.70;91.40;;;;;;5054856;28;20577;-71
2022/09/04 07:14:18;;;;;;;2.20;1.00;;;18.70;91.40;;;;;;5054764;28;20048;-72
2022/09/04 07:17:07;;;;;;;1.88;0.93;;;18.80;91.50;;;;;;5055066;28;20071;-71
2022/09/04 07:19:54;;;;;;;1.35;0.90;;;18.90;91.20;;;;;;5054897;28;20080;-71
2022/09/04 07:22:23;;;;;;;;;;;18.90;91.10;;;;;;5055062;28;20041;-71
2022/09/04 07:25:07;;;;;;;1.58;0.85;;;19.00;91.30;;;;;;5054509;28;19920;-72
2022/09/04 07:27:41;;;;;;;1.70;1.00;;;19.20;91.20;;;;;;5037741;28;20481;-72
2022/09/04 07:30:12;;;;;;;1.85;0.80;;;19.40;91.20;;;;;;5037786;28;20040;-72
2022/09/04 07:32:50;;;;;;;1.40;0.93;;;19.60;91.10;;;;;;5054288;28;20124;-72
2022/09/04 07:35:25;;;;;;;1.88;0.90;;;19.60;91.10;;;;;;5054130;28;20044;-72
2022/09/04 07:37:57;;;;;;;1.93;1.00;;;19.70;90.90;;;;;;5054479;28;20139;-72
2022/09/04 07:40:38;;;;;;;1.48;0.93;;;19.80;91.00;;;;;;5072185;28;20287;-72
2022/09/04 07:43:26;;;;;;;1.15;0.90;;;19.80;91.00;;;;;;5054378;28;20460;-72
2022/09/04 07:46:17;;;;;;;1.50;1.00;;;19.80;91.00;;;;;;5054107;28;20048;-71
2022/09/04 07:48:53;;;;;;;1.33;1.13;;;19.80;91.10;;;;;;5037906;28;20090;-72
2022/09/04 07:51:28;;;;;;;1.23;1.02;;;19.70;91.20;;;;;;5054008;28;20106;-71
2022/09/04 07:54:38;;;;;;;1.70;1.00;;;19.80;91.00;;;;;;5053890;28;20044;-72
2022/09/04 07:57:20;;;;;;;4.07;1.00;;;19.80;91.20;;;;;;5053967;28;20123;-80
2022/09/04 08:00:05;;;;;;;1.35;1.00;;;19.90;91.20;;;;;;5054130;28;20056;-80
2022/09/04 08:02:37;;;;;;;1.42;0.80;;;20.00;91.20;;;;;;5054091;28;20057;-82
2022/09/04 08:05:26;;;;;;;2.13;0.90;;;20.20;91.30;;;;;;5054127;28;20045;-72
2022/09/04 08:08:09;;;;;;;1.52;0.90;;;20.30;91.20;;;;;;5053718;28;20040;-72
2022/09/04 08:10:43;;;;;;;1.58;0.80;;;20.50;91.30;;;;;;5053474;28;20392;-81
2022/09/04 08:13:33;;;;;;;1.08;0.70;;;20.70;91.40;;;;;;5053569;28;20044;-71
2022/09/04 08:16:27;;;;;;;1.20;0.90;;;20.90;91.10;;;;;;5053392;28;20057;-71
2022/09/04 08:19:28;;;;;;;1.42;0.90;;;21.10;91.00;;;;;;5071651;28;20494;-80
2022/09/04 08:21:55;;;;;;;1.48;0.95;;;21.20;91.10;;;;;;5010016;28;20098;-80
2022/09/04 08:24:46;;;;;;;0.65;0.63;;;21.40;91.40;;;;;;5071970;28;20041;-80
2022/09/04 08:27:49;;;;;;;0.90;0.70;;;21.40;90.70;;;;;;5053444;28;20494;-81
2022/09/04 08:30:18;;;;;;;1.13;0.73;;;21.70;90.90;;;;;;5071491;28;20075;-81
2022/09/04 08:33:35;;;;;;;0.80;0.60;;;21.80;90.90;;;;;;5037601;28;20425;-81
2022/09/04 08:36:06;;;;;;;0.93;0.70;;;22.00;91.10;;;;;;5053321;28;20063;-81
2022/09/04 08:39:06;;;;;;;0.68;0.60;;;22.00;90.70;;;;;;5053279;28;20082;-81
2022/09/04 08:41:56;;;;;;;0.80;0.70;;;22.40;90.90;;;;;;5053305;28;20115;-81
2022/09/04 08:44:25;;;;;;;0.80;0.70;;;22.60;90.50;;;;;;5036836;28;20040;-81
2022/09/04 08:47:06;;;;;;;0.90;0.68;;;22.70;90.20;;;;;;5071433;28;20396;-82
2022/09/04 08:49:59;;;;;;;1.65;0.60;;;22.90;90.50;;;;;;5053254;28;20033;-81
2022/09/04 08:52:51;;;;;;;1.10;0.50;;;23.00;90.60;;;;;;5053142;28;20502;-72
2022/09/04 08:55:23;;;;;;;0.73;0.52;;;23.10;90.50;;;;;;5052970;28;20082;-72
2022/09/04 08:58:00;;;;;;;0.85;0.57;;;23.30;90.40;;;;;;5052905;28;20094;-72
2022/09/04 09:00:45;;;;;;;1.00;0.60;;;23.50;90.20;;;;;;5053174;28;20044;-81
2022/09/04 09:03:25;;;;;;;1.52;0.80;;;23.50;90.00;;;;;;5052971;28;20044;-81
2022/09/04 09:06:28;;;;;;;1.05;0.77;;;23.40;89.90;;;;;;5052776;28;20051;-82
2022/09/04 09:09:14;;;;;;;1.00;0.70;;;23.50;90.20;;;;;;5053110;28;20388;-82
2022/09/04 09:11:40;;;;;;;1.07;0.60;;;23.60;89.80;;;;;;5012803;28;20055;-72
2022/09/04 09:14:47;;;;;;;0.90;0.65;;;23.70;90.40;;;;;;5052939;28;20626;-72
2022/09/04 09:17:15;;;;;;;;;;;23.90;90.20;;;;;;5053026;28;20048;-72
2022/09/04 09:19:46;;;;;;;0.90;0.70;;;24.00;90.00;;;;;;5052598;28;19989;-72
2022/09/04 09:22:17;;;;;;;1.98;1.10;;;23.90;89.20;;;;;;5053478;28;20078;-72
2022/09/04 09:25:14;;;;;;;1.75;1.17;;;23.80;89.90;;;;;;5057105;28;20123;-72
2022/09/04 09:27:55;;;;;;;0.55;0.52;;;24.00;90.10;;;;;;5056668;28;20044;-72
2022/09/04 09:30:22;;;;;;;0.73;0.60;;;24.00;90.30;;;;;;5056675;28;20052;-72
2022/09/04 09:33:25;;;;;;;0.63;0.50;;;24.30;90.10;;;;;;5040176;28;20045;-72
2022/09/04 09:35:54;;;;;;;0.70;0.60;;;24.30;90.00;;;;;;5040163;28;20144;-72
2022/09/04 09:38:48;;;;;;;0.80;0.60;;;24.50;89.70;;;;;;5056537;28;20091;-71
2022/09/04 09:41:19;;;;;;;1.05;0.60;;;24.60;89.30;;;;;;5056424;28;20044;-72
2022/09/04 09:43:57;;;;;;;0.77;0.60;;;24.70;89.80;;;;;;5056538;28;20032;-72
2022/09/04 09:46:26;;;;;;;1.63;0.70;;;24.80;88.90;;;;;;5056454;28;20170;-72
2022/09/04 09:49:10;;;;;;;0.45;0.40;;;24.70;89.60;;;;;;5056410;28;20408;-72
2022/09/04 09:52:06;;;;;;;1.15;0.73;;;24.60;88.80;;;;;;5040107;28;20105;-71
2022/09/04 09:54:38;;;;;;;1.02;0.70;;;24.30;88.60;;;;;;5048501;28;20056;-71
2022/09/04 09:57:07;;;;;;;0.80;0.45;;;24.40;89.30;;;;;;5039424;28;20508;-72
2022/09/04 10:00:04;;;;;;;0.75;0.65;;;24.50;88.90;;;;;;5056858;28;20052;-72
2022/09/04 10:02:54;;;;;;;0.40;0.40;;;24.60;89.40;;;;;;5056325;28;20052;-81
2022/09/04 10:05:44;;;;;;;0.70;0.60;;;24.60;88.90;;;;;;5056409;28;20087;-82
2022/09/04 10:08:22;;;;;;;1.92;0.70;;;24.60;88.40;;;;;;5056169;28;20043;-81
2022/09/04 10:11:07;;;;;;;1.65;0.70;;;24.60;88.70;;;;;;5056276;28;20055;-72
2022/09/04 10:13:51;;;;;;;0.85;0.60;;;24.70;88.40;;;;;;5056125;28;20406;-80
2022/09/04 10:16:23;;;;;;;0.70;0.60;;;24.70;88.70;;;;;;5055995;28;20047;-82
2022/09/04 10:19:11;;;;;;;0.95;0.60;;;25.00;88.10;;;;;;5056065;28;20129;-81
2022/09/04 10:22:00;;;;;;;0.95;0.77;;;25.10;87.40;;;;;;5056092;28;20051;-81
2022/09/04 10:24:56;;;;;;;0.98;0.68;;;25.30;87.90;;;;;;5039626;28;20123;-82
2022/09/04 10:27:34;;;;;;;0.88;0.47;;;25.50;87.80;;;;;;5039402;28;20488;-81
2022/09/04 10:30:20;;;;;;;0.70;0.65;;;25.70;88.20;;;;;;5055804;28;20036;-81
2022/09/04 10:33:17;;;;;;;0.50;0.50;;;25.80;86.60;;;;;;5055349;28;20040;-81
2022/09/04 10:36:06;;;;;;;1.33;1.00;;;25.80;86.70;;;;;;5055289;28;20380;-71
2022/09/04 10:41:47;;;;;;;1.15;0.70;;;25.60;87.00;;;;;;5055366;28;20139;-72
2022/09/04 10:44:27;;;;;;;1.10;0.85;;;25.60;86.90;;;;;;5055246;28;20051;-72
2022/09/04 10:46:53;;;;;;;0.90;0.70;;;25.40;86.60;;;;;;5055344;28;20063;-81
2022/09/04 10:49:36;;;;;;;0.98;0.75;;;25.40;86.80;;;;;;5055543;28;20484;-81
2022/09/04 10:52:41;;;;;;;0.60;0.60;;;25.60;86.90;;;;;;5055481;28;20052;-71
2022/09/04 10:55:42;;;;;;;0.85;0.65;;;25.70;86.30;;;;;;5055049;28;20046;-80
2022/09/04 10:58:29;;;;;;;1.17;0.70;;;25.90;86.70;;;;;;5038413;28;20052;-82
2022/09/04 11:01:26;;;;;;;1.40;0.77;;;25.70;85.70;;;;;;5055286;28;20396;-80
2022/09/04 11:04:13;;;;;;;1.00;0.80;;;25.50;86.40;;;;;;5038605;28;20055;-72
2022/09/04 11:07:17;;;;;;;0.90;0.60;;;25.50;86.50;;;;;;5054927;28;20040;-81
2022/09/04 11:10:04;;;;;;;0.63;0.52;;;25.70;86.40;;;;;;5042815;28;20049;-82
2022/09/04 11:13:02;;;;;;;0.85;0.57;;;25.90;86.80;;;;;;5055172;28;20131;-73
2022/09/04 11:15:46;;;;;;;0.80;0.70;;;25.90;86.40;;;;;;5011288;28;20087;-72
2022/09/04 11:18:21;;;;;;;0.70;0.60;;;25.90;86.10;;;;;;5073114;28;20082;-73
2022/09/04 11:21:29;;;;;;;0.85;0.70;;;26.20;86.80;;;;;;5054739;28;20040;-73
2022/09/04 11:24:31;;;;;;;0.73;0.70;;;26.10;86.40;;;;;;5038233;28;20093;-72
2022/09/04 11:27:23;;;;;;;1.80;0.80;;;26.60;87.50;;;;;;5054937;28;20047;-72
2022/09/04 11:30:14;;;;;;;0.82;0.70;;;27.00;86.90;;;;;;5017973;28;20056;-81
2022/09/04 11:33:21;;;;;;;0.80;0.60;;;27.20;86.20;;;;;;5054731;28;20051;-80
2022/09/04 11:36:14;;;;;;;0.93;0.70;;;27.20;86.30;;;;;;4974741;28;20549;-82
2022/09/04 11:38:55;;;;;;;0.88;0.60;;;27.30;85.70;;;;;;4974862;28;20058;-73
2022/09/04 11:41:42;;;;;;;0.60;0.60;;;27.40;86.00;;;;;;5052177;28;20428;-73
2022/09/04 11:44:24;;;;;;;0.90;0.43;;;27.50;85.90;;;;;;5054360;28;20072;-78
2022/09/04 11:47:02;;;;;;;0.32;0.32;;;27.70;85.70;;;;;;5053860;28;20228;-72
2022/09/04 11:49:43;;;;;;;0.47;0.45;;;27.60;85.50;;;;;;5054372;28;20049;-72
2022/09/04 11:52:30;;;;;;;0.90;0.60;;;27.40;84.70;;;;;;5054213;28;20048;-72
2022/09/04 11:55:15;;;;;;;;;;;27.20;85.80;;;;;;5054730;28;20048;-72
2022/09/04 11:58:02;;;;;;;0.60;0.50;;;27.20;85.90;;;;;;5054404;28;19986;-72
2022/09/04 12:00:49;;;;;;;1.48;0.60;;;27.20;85.20;;;;;;5037211;28;20044;-72
2022/09/04 12:03:29;;;;;;;0.73;0.70;;;27.50;86.40;;;;;;5054156;28;20052;-82
2022/09/04 12:06:36;;;;;;;0.50;0.40;;;27.30;85.20;;;;;;5053920;28;20048;-82
2022/09/04 12:09:27;;;;;;;0.57;0.52;;;27.50;85.70;;;;;;5037023;28;20048;-81
2022/09/04 12:12:09;;;;;;;0.75;0.55;;;27.80;85.40;;;;;;5054033;28;20139;-82
2022/09/04 12:15:00;;;;;;;0.68;0.63;;;27.80;85.10;;;;;;5054162;28;20057;-82
2022/09/04 12:17:47;;;;;;;0.55;0.40;;;28.00;85.40;;;;;;5053744;28;20484;-73
2022/09/04 12:20:32;;;;;;;0.65;0.60;;;28.30;86.30;;;;;;5053634;28;20055;-73
2022/09/04 12:23:39;;;;;;;0.35;0.30;;;28.30;85.10;;;;;;5036888;28;20045;-73
2022/09/04 12:26:37;;;;;;;0.90;0.60;;;28.30;85.00;;;;;;5053415;28;20048;-73
2022/09/04 12:29:18;;;;;;;0.82;0.50;;;28.30;84.80;;;;;;5036590;28;20056;-82
2022/09/04 12:32:14;;;;;;;0.40;0.40;;;28.30;85.40;;;;;;5054232;28;20098;-82
2022/09/04 12:35:07;;;;;;;0.52;0.47;;;28.20;84.70;;;;;;5053932;28;20040;-82
2022/09/04 12:38:02;;;;;;;0.20;0.20;;;28.10;85.30;;;;;;5054035;28;20052;-81
2022/09/04 12:40:43;;;;;;;0.50;0.50;;;28.10;85.20;;;;;;5053930;28;20567;-82
2022/09/04 12:43:32;;;;;;;0.75;0.65;;;28.20;84.50;;;;;;5053321;28;20147;-73
2022/09/04 12:46:16;;;;;;;0.50;0.50;;;28.20;85.00;;;;;;5053043;28;20048;-73
2022/09/04 12:48:54;;;;;;;0.88;0.60;;;28.20;84.30;;;;;;5036512;28;20040;-73
2022/09/04 12:51:25;;;;;;;1.20;0.45;;;28.10;85.20;;;;;;5053486;28;20051;-82
2022/09/04 12:54:18;;;;;;;0.50;0.50;;;28.40;85.50;;;;;;5053893;28;20080;-83
2022/09/04 12:56:52;;;;;;;0.43;0.43;;;28.80;85.20;;;;;;5053260;28;20051;-73
2022/09/04 12:59:39;;;;;;;0.40;0.38;;;29.00;84.30;;;;;;5036373;28;20056;-84
2022/09/04 13:02:32;;;;;;;1.00;0.50;;;29.10;84.10;;;;;;5036873;28;20507;-83
2022/09/04 13:05:17;;;;;;;0.85;0.50;;;28.70;83.60;;;;;;5070376;28;20076;-82
2022/09/04 13:08:18;;;;;;;0.60;0.57;;;28.60;85.10;;;;;;5036606;28;20048;-72
2022/09/04 13:11:08;;;;;;;0.70;0.60;;;28.70;85.10;;;;;;5052552;28;20132;-72
2022/09/04 13:13:46;;;;;;;0.65;0.50;;;28.70;84.40;;;;;;5052635;28;20051;-72
2022/09/04 13:16:33;;;;;;;0.45;0.40;;;28.70;84.60;;;;;;5053032;28;20535;-72
2022/09/04 13:19:18;;;;;;;0.30;0.30;;;29.00;85.00;;;;;;5036055;28;20051;-83
2022/09/04 13:22:04;;;;;;;0.32;0.32;;;29.10;85.00;;;;;;5052462;28;20062;-83
2022/09/04 13:24:42;;;;;;;0.80;0.52;;;28.80;84.10;;;;;;5052823;28;20484;-72
2022/09/04 13:27:39;;;;;;;0.45;0.43;;;28.80;84.10;;;;;;5052971;28;20052;-72
2022/09/04 13:30:08;;;;;;;0.30;0.30;;;29.10;84.90;;;;;;5054310;28;20091;-72
2022/09/04 13:32:37;;;;;;;0.55;0.50;;;29.40;84.60;;;;;;5052943;28;20044;-82
2022/09/04 13:35:23;;;;;;;0.40;0.40;;;29.20;83.70;;;;;;5036585;28;20076;-82
2022/09/04 13:38:21;;;;;;;0.47;0.40;;;29.40;84.50;;;;;;5029564;28;20053;-73
2022/09/04 13:41:12;;;;;;;0.98;0.40;;;29.40;84.60;;;;;;4997217;28;20068;-73
2022/09/04 13:43:59;;;;;;;0.40;0.40;;;29.30;83.70;;;;;;5029740;28;20461;-83
2022/09/04 13:46:58;;;;;;;0.50;0.50;;;29.30;84.60;;;;;;5030179;28;20085;-81
2022/09/04 13:49:39;;;;;;;0.47;0.47;;;29.30;84.10;;;;;;5030815;28;20432;-81
2022/09/04 13:52:11;;;;;;;0.57;0.38;;;29.10;84.20;;;;;;5029476;28;20045;-72
2022/09/04 13:54:43;;;;;;;0.28;0.28;;;29.00;84.20;;;;;;5029641;28;20099;-72
2022/09/04 13:57:08;;;;;;;0.35;0.30;;;28.90;84.10;;;;;;5030669;28;20174;-72
2022/09/04 13:59:35;;;;;;;0.90;0.50;;;29.10;84.90;;;;;;5030519;28;20073;-72
2022/09/04 14:02:07;;;;;;;0.40;0.40;;;29.20;84.70;;;;;;5029050;28;20052;-72
2022/09/04 14:04:39;;;;;;;0.30;0.30;;;29.10;84.70;;;;;;5029118;28;20049;-72
2022/09/04 14:07:13;;;;;;;0.38;0.38;;;28.90;83.70;;;;;;5012811;28;20436;-72
2022/09/04 14:09:45;;;;;;;0.40;0.40;;;28.80;83.90;;;;;;5032188;28;20049;-72
2022/09/04 14:12:48;;;;;;;0.32;0.32;;;28.70;84.20;;;;;;5034206;28;20041;-73
2022/09/04 14:15:23;;;;;;;0.40;0.40;;;28.40;84.30;;;;;;5032856;28;20058;-72
2022/09/04 14:18:12;;;;;;;0.45;0.30;;;28.40;84.20;;;;;;5016245;28;20124;-72
2022/09/04 14:20:56;;;;;;;0.50;0.40;;;28.40;84.70;;;;;;5032602;28;20132;-72
2022/09/04 14:23:22;;;;;;;0.30;0.30;;;28.50;84.30;;;;;;5032704;28;20049;-72